sensor_id;sensor_type;location;lat;lon;timestamp;P1;durP1;ratioP1;P2;durP2;ratioP2
35777;SDS011;21899;42.662;23.316;2022-09-03T00:00:11;0.30;;;0.30;;
35777;SDS011;21899;42.662;23.316;2022-09-03T00:02:42;1.27;;;0.77;;
35777;SDS011;21899;42.662;23.316;2022-09-03T00:08:04;1.38;;;0.88;;
35777;SDS011;21899;42.662;23.316;2022-09-03T00:13:28;0.38;;;0.38;;
35777;SDS011;21899;42.662;23.316;2022-09-03T00:16:10;0.13;;;0.13;;
35777;SDS011;21899;42.662;23.316;2022-09-03T00:18:45;0.70;;;0.70;;
35777;SDS011;21899;42.662;23.316;2022-09-03T00:21:16;0.45;;;0.45;;
35777;SDS011;21899;42.662;23.316;2022-09-03T00:23:45;0.40;;;0.40;;
35777;SDS011;21899;42.662;23.316;2022-09-03T00:28:44;1.58;;;0.98;;
35777;SDS011;21899;42.662;23.316;2022-09-03T00:31:18;0.80;;;0.77;;
35777;SDS011;21899;42.662;23.316;2022-09-03T00:33:46;10.25;;;2.63;;
35777;SDS011;21899;42.662;23.316;2022-09-03T00:36:17;1.20;;;0.95;;
35777;SDS011;21899;42.662;23.316;2022-09-03T00:38:47;0.68;;;0.60;;
35777;SDS011;21899;42.662;23.316;2022-09-03T00:41:17;0.73;;;0.65;;
35777;SDS011;21899;42.662;23.316;2022-09-03T00:43:54;0.30;;;0.30;;
35777;SDS011;21899;42.662;23.316;2022-09-03T00:46:30;0.50;;;0.50;;
35777;SDS011;21899;42.662;23.316;2022-09-03T01:00:19;0.40;;;0.40;;
35777;SDS011;21899;42.662;23.316;2022-09-03T01:10:55;0.28;;;0.22;;
35777;SDS011;21899;42.662;23.316;2022-09-03T01:14:07;0.68;;;0.68;;
35777;SDS011;21899;42.662;23.316;2022-09-03T01:19:57;0.40;;;0.40;;
35777;SDS011;21899;42.662;23.316;2022-09-03T01:30:41;1.38;;;1.27;;
35777;SDS011;21899;42.662;23.316;2022-09-03T01:58:23;0.20;;;0.20;;
35777;SDS011;21899;42.662;23.316;2022-09-03T02:00:56;0.43;;;0.32;;
35777;SDS011;21899;42.662;23.316;2022-09-03T02:03:37;0.20;;;0.20;;
35777;SDS011;21899;42.662;23.316;2022-09-03T02:06:07;0.52;;;0.52;;
35777;SDS011;21899;42.662;23.316;2022-09-03T02:08:34;0.47;;;0.47;;
35777;SDS011;21899;42.662;23.316;2022-09-03T02:11:00;0.25;;;0.25;;
35777;SDS011;21899;42.662;23.316;2022-09-03T02:15:59;0.30;;;0.30;;
35777;SDS011;21899;42.662;23.316;2022-09-03T02:18:36;0.63;;;0.63;;
35777;SDS011;21899;42.662;23.316;2022-09-03T02:21:06;0.50;;;0.50;;
35777;SDS011;21899;42.662;23.316;2022-09-03T02:23:32;0.95;;;0.90;;
35777;SDS011;21899;42.662;23.316;2022-09-03T02:25:59;0.52;;;0.52;;
35777;SDS011;21899;42.662;23.316;2022-09-03T02:28:29;0.55;;;0.55;;
35777;SDS011;21899;42.662;23.316;2022-09-03T02:30:56;0.22;;;0.22;;
35777;SDS011;21899;42.662;23.316;2022-09-03T02:33:22;0.57;;;0.57;;
35777;SDS011;21899;42.662;23.316;2022-09-03T02:35:48;0.88;;;0.85;;
35777;SDS011;21899;42.662;23.316;2022-09-03T02:38:21;1.42;;;0.52;;
35777;SDS011;21899;42.662;23.316;2022-09-03T02:40:52;3.95;;;1.20;;
35777;SDS011;21899;42.662;23.316;2022-09-03T02:43:26;1.52;;;1.13;;
35777;SDS011;21899;42.662;23.316;2022-09-03T02:46:00;0.40;;;0.40;;
35777;SDS011;21899;42.662;23.316;2022-09-03T02:48:27;0.25;;;0.25;;
35777;SDS011;21899;42.662;23.316;2022-09-03T02:50:53;0.65;;;0.65;;
35777;SDS011;21899;42.662;23.316;2022-09-03T02:53:18;0.98;;;0.80;;
35777;SDS011;21899;42.662;23.316;2022-09-03T02:55:44;0.93;;;0.85;;
35777;SDS011;21899;42.662;23.316;2022-09-03T02:58:10;0.30;;;0.30;;
35777;SDS011;21899;42.662;23.316;2022-09-03T03:00:35;0.65;;;0.65;;
35777;SDS011;21899;42.662;23.316;2022-09-03T03:03:02;0.43;;;0.43;;
35777;SDS011;21899;42.662;23.316;2022-09-03T03:05:41;1.48;;;0.80;;
35777;SDS011;21899;42.662;23.316;2022-09-03T03:08:09;0.20;;;0.20;;
35777;SDS011;21899;42.662;23.316;2022-09-03T03:10:36;1.13;;;1.05;;
35777;SDS011;21899;42.662;23.316;2022-09-03T03:13:02;0.30;;;0.30;;
35777;SDS011;21899;42.662;23.316;2022-09-03T03:15:28;0.60;;;0.60;;
35777;SDS011;21899;42.662;23.316;2022-09-03T03:17:56;1.48;;;1.05;;
35777;SDS011;21899;42.662;23.316;2022-09-03T03:20:22;0.22;;;0.22;;
35777;SDS011;21899;42.662;23.316;2022-09-03T03:22:47;0.45;;;0.45;;
35777;SDS011;21899;42.662;23.316;2022-09-03T03:25:13;3.20;;;1.42;;
35777;SDS011;21899;42.662;23.316;2022-09-03T03:27:38;1.05;;;1.02;;
35777;SDS011;21899;42.662;23.316;2022-09-03T03:30:06;0.20;;;0.20;;
35777;SDS011;21899;42.662;23.316;2022-09-03T03:32:34;0.35;;;0.35;;
35777;SDS011;21899;42.662;23.316;2022-09-03T03:35:03;0.38;;;0.38;;
35777;SDS011;21899;42.662;23.316;2022-09-03T03:37:30;5.60;;;2.72;;
35777;SDS011;21899;42.662;23.316;2022-09-03T03:39:56;0.57;;;0.57;;
35777;SDS011;21899;42.662;23.316;2022-09-03T03:42:22;0.52;;;0.52;;
35777;SDS011;21899;42.662;23.316;2022-09-03T03:44:47;1.10;;;1.08;;
35777;SDS011;21899;42.662;23.316;2022-09-03T03:47:13;0.40;;;0.40;;
35777;SDS011;21899;42.662;23.316;2022-09-03T03:49:40;0.45;;;0.45;;
35777;SDS011;21899;42.662;23.316;2022-09-03T03:52:06;0.22;;;0.22;;
35777;SDS011;21899;42.662;23.316;2022-09-03T03:54:32;0.52;;;0.52;;
35777;SDS011;21899;42.662;23.316;2022-09-03T03:56:57;0.30;;;0.30;;
35777;SDS011;21899;42.662;23.316;2022-09-03T03:59:23;0.32;;;0.32;;
35777;SDS011;21899;42.662;23.316;2022-09-03T04:01:48;0.20;;;0.20;;
35777;SDS011;21899;42.662;23.316;2022-09-03T04:04:15;0.88;;;0.85;;
35777;SDS011;21899;42.662;23.316;2022-09-03T04:06:41;0.40;;;0.40;;
35777;SDS011;21899;42.662;23.316;2022-09-03T04:09:06;0.30;;;0.30;;
35777;SDS011;21899;42.662;23.316;2022-09-03T04:11:32;0.80;;;0.75;;
35777;SDS011;21899;42.662;23.316;2022-09-03T04:13:57;1.30;;;1.20;;
35777;SDS011;21899;42.662;23.316;2022-09-03T04:16:26;0.10;;;0.10;;
35777;SDS011;21899;42.662;23.316;2022-09-03T04:18:54;0.50;;;0.50;;
35777;SDS011;21899;42.662;23.316;2022-09-03T04:21:24;4.55;;;2.50;;
35777;SDS011;21899;42.662;23.316;2022-09-03T04:23:52;0.65;;;0.65;;
35777;SDS011;21899;42.662;23.316;2022-09-03T04:26:19;0.10;;;0.10;;
35777;SDS011;21899;42.662;23.316;2022-09-03T04:28:46;0.32;;;0.32;;
35777;SDS011;21899;42.662;23.316;2022-09-03T04:31:13;0.80;;;0.80;;
35777;SDS011;21899;42.662;23.316;2022-09-03T04:33:40;2.13;;;1.00;;
35777;SDS011;21899;42.662;23.316;2022-09-03T04:36:39;0.30;;;0.30;;
35777;SDS011;21899;42.662;23.316;2022-09-03T04:38:59;0.10;;;0.10;;
35777;SDS011;21899;42.662;23.316;2022-09-03T04:41:26;0.32;;;0.32;;
35777;SDS011;21899;42.662;23.316;2022-09-03T04:43:54;2.03;;;1.02;;
35777;SDS011;21899;42.662;23.316;2022-09-03T04:46:21;2.83;;;1.15;;
35777;SDS011;21899;42.662;23.316;2022-09-03T04:48:51;2.20;;;1.00;;
35777;SDS011;21899;42.662;23.316;2022-09-03T04:51:21;0.28;;;0.28;;
35777;SDS011;21899;42.662;23.316;2022-09-03T04:53:52;0.70;;;0.70;;
35777;SDS011;21899;42.662;23.316;2022-09-03T04:56:21;0.63;;;0.63;;
35777;SDS011;21899;42.662;23.316;2022-09-03T04:58:53;0.57;;;0.57;;
35777;SDS011;21899;42.662;23.316;2022-09-03T05:01:20;0.30;;;0.30;;
35777;SDS011;21899;42.662;23.316;2022-09-03T05:03:47;3.47;;;0.63;;
35777;SDS011;21899;42.662;23.316;2022-09-03T05:06:13;0.75;;;0.70;;
35777;SDS011;21899;42.662;23.316;2022-09-03T05:08:41;0.65;;;0.65;;
35777;SDS011;21899;42.662;23.316;2022-09-03T05:11:08;0.30;;;0.30;;
35777;SDS011;21899;42.662;23.316;2022-09-03T05:13:33;0.45;;;0.45;;
35777;SDS011;21899;42.662;23.316;2022-09-03T05:16:04;0.30;;;0.30;;
35777;SDS011;21899;42.662;23.316;2022-09-03T05:18:32;0.52;;;0.52;;
35777;SDS011;21899;42.662;23.316;2022-09-03T05:21:09;0.85;;;0.85;;
35777;SDS011;21899;42.662;23.316;2022-09-03T05:23:40;1.25;;;1.15;;
35777;SDS011;21899;42.662;23.316;2022-09-03T05:26:09;0.13;;;0.13;;
35777;SDS011;21899;42.662;23.316;2022-09-03T05:28:37;0.47;;;0.47;;
35777;SDS011;21899;42.662;23.316;2022-09-03T05:31:05;1.70;;;0.73;;
35777;SDS011;21899;42.662;23.316;2022-09-03T05:33:33;0.50;;;0.50;;
35777;SDS011;21899;42.662;23.316;2022-09-03T05:36:00;0.40;;;0.40;;
35777;SDS011;21899;42.662;23.316;2022-09-03T05:38:27;0.98;;;0.90;;
35777;SDS011;21899;42.662;23.316;2022-09-03T05:40:53;3.55;;;1.42;;
35777;SDS011;21899;42.662;23.316;2022-09-03T05:43:21;0.20;;;0.20;;
35777;SDS011;21899;42.662;23.316;2022-09-03T05:45:47;0.38;;;0.38;;
35777;SDS011;21899;42.662;23.316;2022-09-03T05:48:12;0.57;;;0.57;;
35777;SDS011;21899;42.662;23.316;2022-09-03T05:50:38;0.55;;;0.55;;
35777;SDS011;21899;42.662;23.316;2022-09-03T05:53:04;0.13;;;0.13;;
35777;SDS011;21899;42.662;23.316;2022-09-03T05:55:29;0.13;;;0.13;;
35777;SDS011;21899;42.662;23.316;2022-09-03T05:57:54;0.20;;;0.20;;
35777;SDS011;21899;42.662;23.316;2022-09-03T06:00:20;0.32;;;0.32;;
35777;SDS011;21899;42.662;23.316;2022-09-03T06:02:55;0.22;;;0.22;;
35777;SDS011;21899;42.662;23.316;2022-09-03T06:05:21;1.05;;;1.00;;
35777;SDS011;21899;42.662;23.316;2022-09-03T06:07:46;0.45;;;0.45;;
35777;SDS011;21899;42.662;23.316;2022-09-03T06:10:14;0.57;;;0.38;;
35777;SDS011;21899;42.662;23.316;2022-09-03T06:12:42;0.15;;;0.15;;
35777;SDS011;21899;42.662;23.316;2022-09-03T06:15:10;1.00;;;0.73;;
35777;SDS011;21899;42.662;23.316;2022-09-03T06:17:36;0.20;;;0.20;;
35777;SDS011;21899;42.662;23.316;2022-09-03T06:20:02;1.48;;;1.38;;
35777;SDS011;21899;42.662;23.316;2022-09-03T06:22:28;0.60;;;0.60;;
35777;SDS011;21899;42.662;23.316;2022-09-03T06:24:55;0.20;;;0.20;;
35777;SDS011;21899;42.662;23.316;2022-09-03T06:27:20;0.82;;;0.82;;
35777;SDS011;21899;42.662;23.316;2022-09-03T06:29:46;0.70;;;0.70;;
35777;SDS011;21899;42.662;23.316;2022-09-03T06:32:11;1.63;;;1.30;;
35777;SDS011;21899;42.662;23.316;2022-09-03T06:34:37;0.20;;;0.20;;
35777;SDS011;21899;42.662;23.316;2022-09-03T06:37:02;0.50;;;0.50;;
35777;SDS011;21899;42.662;23.316;2022-09-03T06:39:27;0.22;;;0.17;;
35777;SDS011;21899;42.662;23.316;2022-09-03T06:41:53;0.75;;;0.75;;
35777;SDS011;21899;42.662;23.316;2022-09-03T06:44:19;0.95;;;0.95;;
35777;SDS011;21899;42.662;23.316;2022-09-03T06:46:44;1.50;;;0.85;;
35777;SDS011;21899;42.662;23.316;2022-09-03T06:49:11;0.40;;;0.40;;
35777;SDS011;21899;42.662;23.316;2022-09-03T06:51:37;0.65;;;0.65;;
35777;SDS011;21899;42.662;23.316;2022-09-03T06:54:06;0.63;;;0.63;;
35777;SDS011;21899;42.662;23.316;2022-09-03T06:56:34;1.42;;;1.02;;
35777;SDS011;21899;42.662;23.316;2022-09-03T06:59:03;0.30;;;0.30;;
35777;SDS011;21899;42.662;23.316;2022-09-03T07:01:31;7.43;;;2.88;;
35777;SDS011;21899;42.662;23.316;2022-09-03T07:03:58;1.38;;;0.50;;
35777;SDS011;21899;42.662;23.316;2022-09-03T07:06:26;0.40;;;0.40;;
35777;SDS011;21899;42.662;23.316;2022-09-03T07:09:02;0.75;;;0.63;;
35777;SDS011;21899;42.662;23.316;2022-09-03T07:11:29;1.13;;;0.68;;
35777;SDS011;21899;42.662;23.316;2022-09-03T07:13:57;1.55;;;0.88;;
35777;SDS011;21899;42.662;23.316;2022-09-03T07:16:41;0.50;;;0.47;;
35777;SDS011;21899;42.662;23.316;2022-09-03T07:21:33;0.47;;;0.47;;
35777;SDS011;21899;42.662;23.316;2022-09-03T07:24:03;1.35;;;1.25;;
35777;SDS011;21899;42.662;23.316;2022-09-03T07:26:30;0.57;;;0.57;;
35777;SDS011;21899;42.662;23.316;2022-09-03T07:29:08;0.88;;;0.88;;
35777;SDS011;21899;42.662;23.316;2022-09-03T07:31:36;0.80;;;0.80;;
35777;SDS011;21899;42.662;23.316;2022-09-03T07:34:04;0.22;;;0.22;;
35777;SDS011;21899;42.662;23.316;2022-09-03T07:36:34;0.20;;;0.20;;
35777;SDS011;21899;42.662;23.316;2022-09-03T07:39:07;0.25;;;0.25;;
35777;SDS011;21899;42.662;23.316;2022-09-03T07:41:34;1.52;;;1.42;;
35777;SDS011;21899;42.662;23.316;2022-09-03T07:43:59;8.35;;;6.85;;
35777;SDS011;21899;42.662;23.316;2022-09-03T07:46:30;9.68;;;7.38;;
35777;SDS011;21899;42.662;23.316;2022-09-03T07:48:58;8.18;;;6.47;;
35777;SDS011;21899;42.662;23.316;2022-09-03T07:51:27;7.60;;;6.38;;
35777;SDS011;21899;42.662;23.316;2022-09-03T07:53:54;8.45;;;6.22;;
35777;SDS011;21899;42.662;23.316;2022-09-03T07:56:25;7.97;;;6.00;;
35777;SDS011;21899;42.662;23.316;2022-09-03T07:58:51;9.05;;;6.47;;
35777;SDS011;21899;42.662;23.316;2022-09-03T08:01:17;7.07;;;5.78;;
35777;SDS011;21899;42.662;23.316;2022-09-03T08:03:46;7.70;;;6.38;;
35777;SDS011;21899;42.662;23.316;2022-09-03T08:06:14;7.90;;;6.13;;
35777;SDS011;21899;42.662;23.316;2022-09-03T08:08:40;10.45;;;7.25;;
35777;SDS011;21899;42.662;23.316;2022-09-03T08:11:10;8.80;;;7.20;;
35777;SDS011;21899;42.662;23.316;2022-09-03T08:13:41;10.90;;;7.50;;
35777;SDS011;21899;42.662;23.316;2022-09-03T08:16:13;8.85;;;6.40;;
35777;SDS011;21899;42.662;23.316;2022-09-03T08:18:40;8.75;;;6.75;;
35777;SDS011;21899;42.662;23.316;2022-09-03T08:21:13;7.40;;;6.15;;
35777;SDS011;21899;42.662;23.316;2022-09-03T08:23:44;9.73;;;6.50;;
35777;SDS011;21899;42.662;23.316;2022-09-03T08:26:11;7.20;;;5.68;;
35777;SDS011;21899;42.662;23.316;2022-09-03T08:28:37;7.70;;;6.20;;
35777;SDS011;21899;42.662;23.316;2022-09-03T08:31:11;8.65;;;6.40;;
35777;SDS011;21899;42.662;23.316;2022-09-03T08:33:40;9.68;;;6.28;;
35777;SDS011;21899;42.662;23.316;2022-09-03T08:36:09;7.70;;;6.07;;
35777;SDS011;21899;42.662;23.316;2022-09-03T08:38:51;9.27;;;6.57;;
35777;SDS011;21899;42.662;23.316;2022-09-03T08:49:22;8.10;;;5.95;;
35777;SDS011;21899;42.662;23.316;2022-09-03T08:52:04;6.85;;;6.00;;
35777;SDS011;21899;42.662;23.316;2022-09-03T08:54:40;8.00;;;6.72;;
35777;SDS011;21899;42.662;23.316;2022-09-03T08:57:06;9.05;;;5.72;;
35777;SDS011;21899;42.662;23.316;2022-09-03T08:59:32;7.38;;;6.05;;
35777;SDS011;21899;42.662;23.316;2022-09-03T09:02:16;8.55;;;6.43;;
35777;SDS011;21899;42.662;23.316;2022-09-03T09:05:10;14.05;;;6.57;;
35777;SDS011;21899;42.662;23.316;2022-09-03T09:15:36;8.82;;;6.30;;
35777;SDS011;21899;42.662;23.316;2022-09-03T09:18:12;7.07;;;5.85;;
35777;SDS011;21899;42.662;23.316;2022-09-03T09:20:57;7.45;;;6.15;;
35777;SDS011;21899;42.662;23.316;2022-09-03T09:23:45;7.93;;;6.78;;
35777;SDS011;21899;42.662;23.316;2022-09-03T09:26:14;8.20;;;6.60;;
35777;SDS011;21899;42.662;23.316;2022-09-03T09:28:42;7.18;;;5.75;;
35777;SDS011;21899;42.662;23.316;2022-09-03T09:31:11;7.95;;;6.60;;
35777;SDS011;21899;42.662;23.316;2022-09-03T09:33:43;7.88;;;6.18;;
35777;SDS011;21899;42.662;23.316;2022-09-03T09:36:11;8.50;;;5.85;;
35777;SDS011;21899;42.662;23.316;2022-09-03T09:38:41;8.60;;;5.80;;
35777;SDS011;21899;42.662;23.316;2022-09-03T09:43:38;7.07;;;5.80;;
35777;SDS011;21899;42.662;23.316;2022-09-03T09:46:26;7.03;;;5.90;;
35777;SDS011;21899;42.662;23.316;2022-09-03T09:48:58;8.55;;;5.63;;
35777;SDS011;21899;42.662;23.316;2022-09-03T09:51:24;6.28;;;5.15;;
35777;SDS011;21899;42.662;23.316;2022-09-03T09:56:43;7.47;;;5.13;;
35777;SDS011;21899;42.662;23.316;2022-09-03T09:59:09;6.40;;;5.38;;
35777;SDS011;21899;42.662;23.316;2022-09-03T10:01:36;7.90;;;5.90;;
35777;SDS011;21899;42.662;23.316;2022-09-03T10:06:52;7.22;;;5.68;;
35777;SDS011;21899;42.662;23.316;2022-09-03T10:09:30;6.70;;;6.00;;
35777;SDS011;21899;42.662;23.316;2022-09-03T10:14:39;6.07;;;5.47;;
35777;SDS011;21899;42.662;23.316;2022-09-03T10:17:19;7.18;;;6.13;;
35777;SDS011;21899;42.662;23.316;2022-09-03T10:22:40;6.43;;;5.43;;
35777;SDS011;21899;42.662;23.316;2022-09-03T10:25:12;8.05;;;5.47;;
35777;SDS011;21899;42.662;23.316;2022-09-03T10:27:40;6.88;;;6.05;;
35777;SDS011;21899;42.662;23.316;2022-09-03T10:30:09;7.25;;;6.15;;
35777;SDS011;21899;42.662;23.316;2022-09-03T10:35:42;6.82;;;6.13;;
35777;SDS011;21899;42.662;23.316;2022-09-03T10:46:56;7.50;;;5.82;;
35777;SDS011;21899;42.662;23.316;2022-09-03T11:01:15;6.05;;;4.65;;
35777;SDS011;21899;42.662;23.316;2022-09-03T11:04:16;5.53;;;4.57;;
35777;SDS011;21899;42.662;23.316;2022-09-03T11:06:51;5.75;;;4.80;;
35777;SDS011;21899;42.662;23.316;2022-09-03T11:09:21;5.53;;;4.55;;
35777;SDS011;21899;42.662;23.316;2022-09-03T11:11:55;6.40;;;5.05;;
35777;SDS011;21899;42.662;23.316;2022-09-03T11:14:37;6.20;;;4.82;;
35777;SDS011;21899;42.662;23.316;2022-09-03T11:17:08;5.97;;;5.10;;
35777;SDS011;21899;42.662;23.316;2022-09-03T11:19:47;6.72;;;5.50;;
35777;SDS011;21899;42.662;23.316;2022-09-03T11:22:22;5.95;;;5.10;;
35777;SDS011;21899;42.662;23.316;2022-09-03T11:24:53;6.35;;;5.13;;
35777;SDS011;21899;42.662;23.316;2022-09-03T11:30:06;6.03;;;5.00;;
35777;SDS011;21899;42.662;23.316;2022-09-03T11:32:43;6.32;;;5.40;;
35777;SDS011;21899;42.662;23.316;2022-09-03T11:36:00;6.50;;;5.80;;
35777;SDS011;21899;42.662;23.316;2022-09-03T11:38:00;6.78;;;5.60;;
35777;SDS011;21899;42.662;23.316;2022-09-03T11:40:34;7.00;;;5.22;;
35777;SDS011;21899;42.662;23.316;2022-09-03T11:46:00;7.15;;;5.20;;
35777;SDS011;21899;42.662;23.316;2022-09-03T11:48:30;7.40;;;5.72;;
35777;SDS011;21899;42.662;23.316;2022-09-03T11:51:19;7.78;;;4.97;;
35777;SDS011;21899;42.662;23.316;2022-09-03T11:53:58;6.63;;;4.32;;
35777;SDS011;21899;42.662;23.316;2022-09-03T11:56:47;6.80;;;5.30;;
35777;SDS011;21899;42.662;23.316;2022-09-03T12:01:52;6.78;;;5.43;;
35777;SDS011;21899;42.662;23.316;2022-09-03T12:04:33;8.93;;;5.63;;
35777;SDS011;21899;42.662;23.316;2022-09-03T12:20:43;5.65;;;4.18;;
35777;SDS011;21899;42.662;23.316;2022-09-03T12:23:11;5.53;;;4.00;;
35777;SDS011;21899;42.662;23.316;2022-09-03T12:25:44;5.93;;;4.45;;
35777;SDS011;21899;42.662;23.316;2022-09-03T12:28:12;5.68;;;4.30;;
35777;SDS011;21899;42.662;23.316;2022-09-03T12:30:43;5.00;;;3.70;;
35777;SDS011;21899;42.662;23.316;2022-09-03T12:33:09;5.47;;;4.40;;
35777;SDS011;21899;42.662;23.316;2022-09-03T12:35:38;6.05;;;4.10;;
35777;SDS011;21899;42.662;23.316;2022-09-03T12:38:03;8.48;;;4.10;;
35777;SDS011;21899;42.662;23.316;2022-09-03T12:40:29;6.50;;;5.13;;
35777;SDS011;21899;42.662;23.316;2022-09-03T12:42:59;11.82;;;5.55;;
35777;SDS011;21899;42.662;23.316;2022-09-03T12:45:41;6.80;;;5.07;;
35777;SDS011;21899;42.662;23.316;2022-09-03T12:48:15;6.38;;;4.63;;
35777;SDS011;21899;42.662;23.316;2022-09-03T12:53:10;12.70;;;4.93;;
35777;SDS011;21899;42.662;23.316;2022-09-03T12:55:48;6.25;;;4.93;;
35777;SDS011;21899;42.662;23.316;2022-09-03T13:03:43;6.15;;;4.88;;
35777;SDS011;21899;42.662;23.316;2022-09-03T13:09:36;5.53;;;4.68;;
35777;SDS011;21899;42.662;23.316;2022-09-03T13:12:04;5.82;;;4.65;;
35777;SDS011;21899;42.662;23.316;2022-09-03T13:14:42;5.28;;;4.43;;
35777;SDS011;21899;42.662;23.316;2022-09-03T13:23:10;5.10;;;3.55;;
35777;SDS011;21899;42.662;23.316;2022-09-03T13:31:43;5.97;;;4.47;;
35777;SDS011;21899;42.662;23.316;2022-09-03T13:34:16;5.20;;;3.60;;
35777;SDS011;21899;42.662;23.316;2022-09-03T13:40:02;5.60;;;4.05;;
35777;SDS011;21899;42.662;23.316;2022-09-03T13:42:12;5.93;;;4.75;;
35777;SDS011;21899;42.662;23.316;2022-09-03T13:44:54;5.35;;;4.50;;
35777;SDS011;21899;42.662;23.316;2022-09-03T13:52:52;4.47;;;3.60;;
35777;SDS011;21899;42.662;23.316;2022-09-03T13:55:24;4.35;;;3.20;;
35777;SDS011;21899;42.662;23.316;2022-09-03T13:58:05;4.82;;;3.50;;
35777;SDS011;21899;42.662;23.316;2022-09-03T14:03:11;5.25;;;3.60;;
35777;SDS011;21899;42.662;23.316;2022-09-03T14:22:12;5.00;;;4.35;;
35777;SDS011;21899;42.662;23.316;2022-09-03T14:27:11;6.07;;;4.28;;
35777;SDS011;21899;42.662;23.316;2022-09-03T14:29:37;9.35;;;4.60;;
35777;SDS011;21899;42.662;23.316;2022-09-03T14:40:45;7.05;;;4.72;;
35777;SDS011;21899;42.662;23.316;2022-09-03T14:46:32;7.15;;;4.55;;
35777;SDS011;21899;42.662;23.316;2022-09-03T14:49:40;6.22;;;4.40;;
35777;SDS011;21899;42.662;23.316;2022-09-03T15:10:51;4.68;;;3.15;;
35777;SDS011;21899;42.662;23.316;2022-09-03T15:13:27;5.45;;;3.25;;
35777;SDS011;21899;42.662;23.316;2022-09-03T15:32:20;6.28;;;3.80;;
35777;SDS011;21899;42.662;23.316;2022-09-03T15:35:06;5.70;;;3.97;;
35777;SDS011;21899;42.662;23.316;2022-09-03T15:42:46;6.72;;;4.38;;
35777;SDS011;21899;42.662;23.316;2022-09-03T15:45:27;6.22;;;4.20;;
35777;SDS011;21899;42.662;23.316;2022-09-03T15:48:11;6.65;;;4.50;;
35777;SDS011;21899;42.662;23.316;2022-09-03T15:50:48;7.32;;;4.80;;
35777;SDS011;21899;42.662;23.316;2022-09-03T15:53:35;7.43;;;4.38;;
35777;SDS011;21899;42.662;23.316;2022-09-03T15:56:11;6.07;;;4.60;;
35777;SDS011;21899;42.662;23.316;2022-09-03T16:04:31;6.80;;;4.45;;
35777;SDS011;21899;42.662;23.316;2022-09-03T16:12:09;7.00;;;4.82;;
35777;SDS011;21899;42.662;23.316;2022-09-03T16:14:54;6.82;;;4.60;;
35777;SDS011;21899;42.662;23.316;2022-09-03T16:22:56;7.40;;;5.43;;
35777;SDS011;21899;42.662;23.316;2022-09-03T16:25:31;6.95;;;5.57;;
35777;SDS011;21899;42.662;23.316;2022-09-03T16:28:09;7.72;;;4.88;;
35777;SDS011;21899;42.662;23.316;2022-09-03T16:36:20;7.28;;;6.00;;
35777;SDS011;21899;42.662;23.316;2022-09-03T16:42:41;9.18;;;6.53;;
35777;SDS011;21899;42.662;23.316;2022-09-03T16:58:18;9.20;;;6.45;;
35777;SDS011;21899;42.662;23.316;2022-09-03T17:09:09;10.45;;;8.13;;
35777;SDS011;21899;42.662;23.316;2022-09-03T17:22:55;9.15;;;7.65;;
35777;SDS011;21899;42.662;23.316;2022-09-03T17:28:46;12.32;;;7.20;;
35777;SDS011;21899;42.662;23.316;2022-09-03T17:31:20;11.70;;;8.00;;
35777;SDS011;21899;42.662;23.316;2022-09-03T17:34:06;13.50;;;8.18;;
35777;SDS011;21899;42.662;23.316;2022-09-03T17:36:47;12.45;;;8.85;;
35777;SDS011;21899;42.662;23.316;2022-09-03T17:42:19;10.40;;;8.05;;
35777;SDS011;21899;42.662;23.316;2022-09-03T17:45:12;11.73;;;8.35;;
35777;SDS011;21899;42.662;23.316;2022-09-03T17:50:17;15.48;;;11.38;;
35777;SDS011;21899;42.662;23.316;2022-09-03T17:55:32;12.65;;;9.75;;
35777;SDS011;21899;42.662;23.316;2022-09-03T17:58:16;8.85;;;7.00;;
35777;SDS011;21899;42.662;23.316;2022-09-03T18:03:29;8.45;;;7.10;;
35777;SDS011;21899;42.662;23.316;2022-09-03T18:06:05;16.08;;;9.07;;
35777;SDS011;21899;42.662;23.316;2022-09-03T18:08:40;11.85;;;8.32;;
35777;SDS011;21899;42.662;23.316;2022-09-03T18:11:11;12.82;;;9.60;;
35777;SDS011;21899;42.662;23.316;2022-09-03T18:13:44;10.55;;;8.70;;
35777;SDS011;21899;42.662;23.316;2022-09-03T18:16:17;9.63;;;8.10;;
35777;SDS011;21899;42.662;23.316;2022-09-03T18:18:51;12.70;;;9.00;;
35777;SDS011;21899;42.662;23.316;2022-09-03T18:21:26;14.05;;;9.32;;
35777;SDS011;21899;42.662;23.316;2022-09-03T18:24:28;11.70;;;9.60;;
35777;SDS011;21899;42.662;23.316;2022-09-03T18:28:02;11.80;;;9.27;;
35777;SDS011;21899;42.662;23.316;2022-09-03T18:30:26;13.77;;;10.02;;
35777;SDS011;21899;42.662;23.316;2022-09-03T18:33:10;12.73;;;9.85;;
35777;SDS011;21899;42.662;23.316;2022-09-03T18:35:54;12.52;;;9.05;;
35777;SDS011;21899;42.662;23.316;2022-09-03T18:38:41;15.32;;;9.40;;
35777;SDS011;21899;42.662;23.316;2022-09-03T18:44:23;10.18;;;8.45;;
35777;SDS011;21899;42.662;23.316;2022-09-03T18:54:24;11.43;;;9.18;;
35777;SDS011;21899;42.662;23.316;2022-09-03T18:57:19;13.27;;;10.65;;
35777;SDS011;21899;42.662;23.316;2022-09-03T19:00:08;12.63;;;9.30;;
35777;SDS011;21899;42.662;23.316;2022-09-03T19:06:12;15.00;;;11.05;;
35777;SDS011;21899;42.662;23.316;2022-09-03T19:15:55;14.05;;;9.85;;
35777;SDS011;21899;42.662;23.316;2022-09-03T19:21:51;14.27;;;10.35;;
35777;SDS011;21899;42.662;23.316;2022-09-03T19:24:39;11.75;;;10.32;;
35777;SDS011;21899;42.662;23.316;2022-09-03T19:54:49;12.07;;;9.50;;
35777;SDS011;21899;42.662;23.316;2022-09-03T19:57:36;14.02;;;9.93;;
35777;SDS011;21899;42.662;23.316;2022-09-03T20:00:23;14.00;;;9.85;;
35777;SDS011;21899;42.662;23.316;2022-09-03T20:03:08;12.20;;;9.57;;
35777;SDS011;21899;42.662;23.316;2022-09-03T20:05:56;12.57;;;9.57;;
35777;SDS011;21899;42.662;23.316;2022-09-03T20:08:40;15.18;;;10.82;;
35777;SDS011;21899;42.662;23.316;2022-09-03T20:11:25;15.98;;;10.30;;
35777;SDS011;21899;42.662;23.316;2022-09-03T20:13:54;24.30;;;10.88;;
35777;SDS011;21899;42.662;23.316;2022-09-03T20:21:58;15.77;;;9.40;;
35777;SDS011;21899;42.662;23.316;2022-09-03T20:24:40;14.30;;;10.25;;
35777;SDS011;21899;42.662;23.316;2022-09-03T20:27:32;13.82;;;11.10;;
35777;SDS011;21899;42.662;23.316;2022-09-03T20:30:05;11.80;;;9.68;;
35777;SDS011;21899;42.662;23.316;2022-09-03T20:32:43;14.68;;;10.27;;
35777;SDS011;21899;42.662;23.316;2022-09-03T20:35:51;14.77;;;10.52;;
35777;SDS011;21899;42.662;23.316;2022-09-03T20:41:02;14.48;;;11.07;;
35777;SDS011;21899;42.662;23.316;2022-09-03T20:52:21;12.88;;;8.85;;
35777;SDS011;21899;42.662;23.316;2022-09-03T20:55:06;14.48;;;9.50;;
35777;SDS011;21899;42.662;23.316;2022-09-03T20:57:47;12.05;;;9.63;;
35777;SDS011;21899;42.662;23.316;2022-09-03T21:00:38;12.68;;;9.93;;
35777;SDS011;21899;42.662;23.316;2022-09-03T21:03:15;11.07;;;9.02;;
35777;SDS011;21899;42.662;23.316;2022-09-03T21:13:53;11.55;;;9.45;;
35777;SDS011;21899;42.662;23.316;2022-09-03T21:16:35;11.77;;;9.00;;
35777;SDS011;21899;42.662;23.316;2022-09-03T21:24:37;14.30;;;8.75;;
35777;SDS011;21899;42.662;23.316;2022-09-03T21:27:13;11.55;;;8.93;;
35777;SDS011;21899;42.662;23.316;2022-09-03T21:32:53;17.88;;;9.07;;
35777;SDS011;21899;42.662;23.316;2022-09-03T21:37:54;14.75;;;11.27;;
35777;SDS011;21899;42.662;23.316;2022-09-03T21:40:25;15.25;;;10.02;;
35777;SDS011;21899;42.662;23.316;2022-09-03T21:43:18;14.90;;;9.98;;
35777;SDS011;21899;42.662;23.316;2022-09-03T21:45:50;16.77;;;11.15;;
35777;SDS011;21899;42.662;23.316;2022-09-03T21:48:31;18.40;;;13.27;;
35777;SDS011;21899;42.662;23.316;2022-09-03T21:51:07;19.33;;;12.68;;